Aérodrome :
LOGIN :

S'inscrire | Disclaimer

   EN    FR    IT 

 










Légende :    VFR   VFR Marginal   IFR   IFR Intensif   IFR Très Intensif
Visi : 
Plafond : 
>= 8 km
>= 3000ft
5 à 8 km
1000 à 3000 ft
1500m à 5 km
500 à 1000 ft
800 à 1500m
200 à 500 ft
< 800m
< 200 ft
Symboles :   Orages  Brouillard  Fortes neiges  Fortes précipitations  Vent > 20 kt
SIGMETs :   Divers  Orages  Givrage  Turbulence  Onde Orograph.  Cendres Volcan.







- Altitude de l'aérodrome : 203 ft
- Code IATA : XMJ
- Voir les cartes d'approche


LFBM - Mont-De-Marsan

DERNIER METAR :
  • 162230Z AUTO 00000KT 0500 R27/0600N FZFG VV/// M00/M00 Q1029 TEMPO 2000 BCFG NSC

METARs EXPIRÉS :
  • 162200Z AUTO 00000KT 0450 R27/0600U FZFG VV/// M00/M01 Q1029 BECMG 2000 BCFG NSC
  • 162130Z AUTO 26001KT 0600 0450 R27/0325D FG VV/// 00/M00 Q1028 BECMG 2000 BCFG NSC
  • 162100Z AUTO 28002KT 2900 1100 R27/1600D BR NSC 00/M00 Q1028 NOSIG
  • 162030Z AUTO 00000KT 9999 0650 R27/P2000 BCFG NSC 01/01 Q1028 BECMG 2000 BCFG
  • 162000Z AUTO 00000KT 9999 1600 NSC 01/00 Q1027 BECMG 2000 BCFG

TAF TAF LFBM
Valide du 16 à 21h jusqu'au 17 à 21h UTC


162000Z 1621/1721 VRB02KT 7000 NSC
BECMG 1621/1623 2000 BCFG
BECMG 1700/1702 0500 FZFG VV///
BECMG 1706/1708 1500 BCFG BKN002
BECMG 1708/1710 9999 NSW NSC
Pas de NOTAMs connus pour ce terrain.



MET'MAP, la Météo Aéronautique d'un coup d'oeil ! - Copyright ORBIFLY Décembre 2007 - Disclaimer

ORBIFLY MET'MAP TEAM :

Programmation & Développement : Alexandra Zaïnal
Conception & Développement : Baudouin d'Aumeries
Co-Programmation & Développement : Marc-Olivier Méhu
Soutien technique & logistique : Manuel Goepfert

Contact : metmap@orbifly.com




SOURCES & CREDITS :

   NOAA